This is the latest recevied weather packets stored in our database for station/object DO7ZT-10. If no packets are shown the sender has not sent any weather packets the latest 10 day(s).
| Time | Temp. | Humidity | Pressure | Rain* | Wind** | Luminosity | Snow |
|---|---|---|---|---|---|---|---|
| 1787409964 | 17.78° C | 66% | 1017.4 hPa | - | - | - | - |
| 1787409064 | 17.22° C | 68% | 1017.3 hPa | - | - | - | - |
| 1787408164 | 16.67° C | 68% | 1017.3 hPa | - | - | - | - |
| 1787407264 | 16.11° C | 73% | 1017.2 hPa | - | - | - | - |
| 1787406364 | 15.56° C | 76% | 1017.1 hPa | - | - | - | - |
| 1787405464 | 15.56° C | 75% | 1016.9 hPa | - | - | - | - |
| 1787403663 | 14.44° C | 84% | 1016.8 hPa | - | - | - | - |
| 1787402763 | 13.89° C | 87% | 1016.7 hPa | - | - | - | - |
| 1787401863 | 13.89° C | 87% | 1016.6 hPa | - | - | - | - |
| 1787400933 | 13.89° C | 90% | 1016.5 hPa | - | - | - | - |
| 1787400114 | 14.44° C | 92% | 1016.3 hPa | - | - | - | - |
| 1787399214 | 13.89° C | 95% | 1016.2 hPa | - | - | - | - |
| 1787398314 | 13.89° C | 94% | 1016.1 hPa | - | - | - | - |
| 1787397414 | 13.89° C | 95% | 1015.8 hPa | - | - | - | - |
| 1787396514 | 13.89° C | 94% | 1015.3 hPa | - | - | - | - |
| 1787395614 | 13.89° C | 95% | 1015.1 hPa | - | - | - | - |
| 1787394714 | 13.89° C | 95% | 1014.9 hPa | - | - | - | - |
| 1787393814 | 14.44° C | 94% | 1014.7 hPa | - | - | - | - |
| 1787392914 | 14.44° C | 95% | 1014.5 hPa | - | - | - | - |
| 1787392014 | 14.44° C | 94% | 1014.3 hPa | - | - | - | - |
| 1787391114 | 14.44° C | 94% | 1014.3 hPa | - | - | - | - |
| 1787390214 | 14.44° C | 93% | 1014.1 hPa | - | - | - | - |
| 1787389313 | 14.44° C | 94% | 1014 hPa | - | - | - | - |
| 1787388413 | 14.44° C | 93% | 1014 hPa | - | - | - | - |
| 1787387513 | 14.44° C | 92% | 1013.9 hPa | - | - | - | - |
* Rain since midnight (hover to see other rain measurements)
** Current wind speed in m/s (hover to see current wind gust speed)